Weather at Stockholm-Bromma Airport

Public forecast

Using degrees Celsius for public forecast. Weather courtesy of forecast.io.

Current aviation weather report (METAR) for Stockholm-Bromma Airport

Retrieved 2022/08/10 15:20 UTC (1 hour ago):

ESSB 101520Z 20008KT 160V240 CAVOK 25/13 Q1022

Aviation forecast (TAF) for Stockholm-Bromma Airport

Forecast is more than 12 hours old.

Retrieved 2017/03/27 06:35 UTC (5 years ago):

TAF ESSB 270530Z 2706/2724 27008KT CAVOK BECMG 2710/2713 29015G25KT